Time;durP1;ratioP1;P1;durP2;ratioP2;P2;SDS_P1;SDS_P2;PMS_P1;PMS_P2;Temp;Humidity;BMP_temperature;BMP_pressure;BME280_temperature;BME280_humidity;BME280_pressure;Samples;Min_cycle;Max_cycle;Signal;HPM_P1;HPM_P2
2022/07/22 00:00:22;;;;;;;7.47;4.85;;;19.90;99.90;;;;;;5096264;28;21052;-78
2022/07/22 00:02:48;;;;;;;5.10;3.83;;;19.90;99.90;;;;;;5093450;28;20184;-78
2022/07/22 00:05:14;;;;;;;5.90;4.30;;;19.80;99.90;;;;;;5097868;28;20175;-78
2022/07/22 00:07:40;;;;;;;7.55;4.63;;;19.80;99.90;;;;;;5092444;28;20192;-77
2022/07/22 00:10:13;;;;;;;15.27;4.70;;;19.70;99.90;;;;;;5102181;28;20221;-75
2022/07/22 00:12:39;;;;;;;6.38;4.35;;;19.70;99.90;;;;;;5094962;28;20183;-76
2022/07/22 00:15:08;;;;;;;6.43;4.38;;;19.70;99.90;;;;;;5091210;28;20190;-78
2022/07/22 00:17:36;;;;;;;6.10;4.78;;;19.70;99.90;;;;;;5097578;28;20195;-77
2022/07/22 00:20:06;;;;;;;7.25;4.72;;;19.60;99.90;;;;;;5095807;28;20241;-78
2022/07/22 00:22:33;;;;;;;5.20;4.70;;;19.60;99.90;;;;;;5093321;28;20176;-79
2022/07/22 00:24:59;;;;;;;4.60;4.13;;;19.60;99.90;;;;;;5095809;28;20210;-78
2022/07/22 00:27:25;;;;;;;6.00;4.53;;;19.60;99.90;;;;;;5096704;28;20179;-74
2022/07/22 00:29:53;;;;;;;6.60;4.90;;;19.60;99.90;;;;;;5091708;28;20210;-74
2022/07/22 00:32:19;;;;;;;7.35;5.00;;;19.60;99.90;;;;;;5094164;28;20202;-78
2022/07/22 00:34:44;;;;;;;6.00;4.80;;;19.50;99.90;;;;;;5092801;28;20204;-78
2022/07/22 00:37:10;;;;;;;7.38;5.35;;;19.50;99.90;;;;;;5093591;28;20188;-78
2022/07/22 00:39:36;;;;;;;6.03;4.50;;;19.50;99.90;;;;;;5093774;28;20317;-77
2022/07/22 00:42:03;;;;;;;6.00;4.40;;;19.50;99.90;;;;;;5089539;28;20180;-77
2022/07/22 00:44:28;;;;;;;6.05;4.18;;;19.50;99.90;;;;;;5093517;28;20336;-78
2022/07/22 00:46:54;;;;;;;6.32;4.47;;;19.50;99.90;;;;;;5091474;28;20282;-78
2022/07/22 00:49:20;;;;;;;6.05;4.55;;;19.50;99.90;;;;;;5094688;28;20284;-78
2022/07/22 00:51:46;;;;;;;5.93;3.95;;;19.60;99.90;;;;;;5095811;28;20190;-77
2022/07/22 00:54:12;;;;;;;5.07;3.63;;;19.60;99.90;;;;;;5093150;28;20223;-77
2022/07/22 00:56:41;;;;;;;4.93;3.63;;;19.60;99.90;;;;;;5092390;28;20176;-78
2022/07/22 00:59:09;;;;;;;6.30;3.95;;;19.60;99.90;;;;;;5097110;28;20187;-77
2022/07/22 01:01:40;;;;;;;6.90;4.55;;;19.60;99.90;;;;;;5093315;28;20283;-76
2022/07/22 01:04:08;;;;;;;6.05;4.43;;;19.60;99.90;;;;;;5091088;28;20271;-78
2022/07/22 01:06:34;;;;;;;7.72;4.00;;;19.60;99.90;;;;;;5092592;28;20186;-78
2022/07/22 01:09:02;;;;;;;7.20;4.10;;;19.60;99.90;;;;;;5094871;28;20212;-78
2022/07/22 01:11:30;;;;;;;6.90;3.80;;;19.60;99.90;;;;;;5095716;28;20214;-78
2022/07/22 01:13:58;;;;;;;8.20;4.57;;;19.60;99.90;;;;;;5096207;28;20176;-77
2022/07/22 01:16:24;;;;;;;6.05;4.40;;;19.60;99.90;;;;;;5094305;28;20263;-77
2022/07/22 01:18:51;;;;;;;7.35;4.95;;;19.50;99.90;;;;;;5096266;28;20245;-77
2022/07/22 01:21:17;;;;;;;7.18;4.00;;;19.50;99.90;;;;;;5099415;28;20180;-77
2022/07/22 01:23:44;;;;;;;7.25;4.15;;;19.50;99.90;;;;;;5104862;28;20277;-77
2022/07/22 01:26:13;;;;;;;7.97;4.40;;;19.50;99.90;;;;;;5095428;28;20188;-76
2022/07/22 01:28:39;;;;;;;7.70;4.43;;;19.50;99.90;;;;;;5091516;28;20177;-77
2022/07/22 01:31:04;;;;;;;7.03;4.30;;;19.50;99.90;;;;;;5092331;28;20221;-76
2022/07/22 01:33:33;;;;;;;6.75;5.10;;;19.50;99.90;;;;;;5093312;28;20199;-77
2022/07/22 01:35:59;;;;;;;8.50;5.45;;;19.50;99.90;;;;;;5091641;28;20270;-78
2022/07/22 01:38:27;;;;;;;6.78;5.18;;;19.50;99.90;;;;;;5092689;28;20271;-77
2022/07/22 01:40:53;;;;;;;7.82;5.07;;;19.40;99.90;;;;;;5091792;28;20176;-78
2022/07/22 01:43:21;;;;;;;7.32;4.90;;;19.40;99.90;;;;;;5093669;28;20182;-78
2022/07/22 01:45:52;;;;;;;7.50;4.70;;;19.40;99.90;;;;;;5096741;28;20184;-78
2022/07/22 01:48:18;;;;;;;7.38;5.05;;;19.40;99.90;;;;;;5093927;28;20227;-78
2022/07/22 01:50:44;;;;;;;7.00;4.47;;;19.30;99.90;;;;;;5093136;28;20211;-77
2022/07/22 01:53:10;;;;;;;6.55;4.47;;;19.30;99.90;;;;;;5090616;28;20179;-78
2022/07/22 01:55:36;;;;;;;6.63;4.20;;;19.30;99.90;;;;;;5091788;28;20168;-78
2022/07/22 01:58:03;;;;;;;9.55;4.63;;;19.30;99.90;;;;;;5093665;28;20287;-77
2022/07/22 02:00:34;;;;;;;7.15;4.05;;;19.30;99.90;;;;;;5091412;28;20176;-78
2022/07/22 02:03:01;;;;;;;6.88;4.53;;;19.30;99.90;;;;;;5093325;28;20210;-77
2022/07/22 02:05:27;;;;;;;5.90;3.90;;;19.30;99.90;;;;;;5091526;28;20209;-78
2022/07/22 02:07:52;;;;;;;5.88;4.15;;;19.30;99.90;;;;;;5092838;28;20200;-77
2022/07/22 02:10:20;;;;;;;5.53;3.95;;;19.30;99.90;;;;;;5092195;28;20313;-76
2022/07/22 02:12:46;;;;;;;9.52;4.95;;;19.30;99.90;;;;;;5092530;28;20921;-77
2022/07/22 02:15:11;;;;;;;6.43;3.80;;;19.30;99.90;;;;;;5094848;28;20176;-78
2022/07/22 02:17:39;;;;;;;5.07;4.03;;;19.30;99.90;;;;;;5092025;28;20276;-77
2022/07/22 02:20:06;;;;;;;6.97;4.07;;;19.30;99.90;;;;;;5093928;28;20179;-74
2022/07/22 02:22:33;;;;;;;6.47;4.50;;;19.30;99.90;;;;;;5093166;28;20270;-78
2022/07/22 02:25:02;;;;;;;8.10;4.60;;;19.30;99.90;;;;;;5089673;28;20215;-78
2022/07/22 02:27:30;;;;;;;8.82;4.82;;;19.30;99.90;;;;;;5091989;28;20188;-78
2022/07/22 02:29:56;;;;;;;7.28;4.55;;;19.30;99.90;;;;;;5093334;28;20282;-78
2022/07/22 02:32:22;;;;;;;6.35;4.25;;;19.30;99.90;;;;;;5098376;28;20298;-77
2022/07/22 02:34:52;;;;;;;5.80;4.07;;;19.20;99.90;;;;;;5097682;28;20172;-76
2022/07/22 02:37:18;;;;;;;8.75;4.30;;;19.30;99.90;;;;;;5097372;28;20207;-78
2022/07/22 02:39:43;;;;;;;8.48;4.60;;;19.20;99.90;;;;;;5093573;28;20203;-78
2022/07/22 02:42:11;;;;;;;7.13;4.93;;;19.20;99.90;;;;;;5094527;28;20191;-77
2022/07/22 02:44:37;;;;;;;13.48;5.93;;;19.30;99.90;;;;;;5095545;28;20317;-77
2022/07/22 02:47:05;;;;;;;6.45;5.15;;;19.20;99.90;;;;;;5095826;28;20272;-77
2022/07/22 02:49:33;;;;;;;8.68;4.95;;;19.20;99.90;;;;;;5093892;28;20192;-78
2022/07/22 02:52:01;;;;;;;7.22;4.55;;;19.20;99.90;;;;;;5099088;28;20297;-78
2022/07/22 02:54:29;;;;;;;8.55;4.60;;;19.20;99.90;;;;;;5095473;28;20180;-78
2022/07/22 02:56:57;;;;;;;5.55;4.80;;;19.20;99.90;;;;;;5093625;28;20176;-77
2022/07/22 02:59:23;;;;;;;7.53;4.68;;;19.20;99.90;;;;;;5097031;28;21016;-76
2022/07/22 03:01:48;;;;;;;7.68;4.57;;;19.20;99.90;;;;;;5098685;28;20241;-79
2022/07/22 03:04:14;;;;;;;5.82;4.07;;;19.20;99.90;;;;;;5097952;28;20184;-79
2022/07/22 03:06:39;;;;;;;6.57;4.72;;;19.20;99.90;;;;;;5094344;28;20195;-78
2022/07/22 03:09:07;;;;;;;6.50;4.82;;;19.20;99.90;;;;;;5096357;28;20212;-78
2022/07/22 03:11:33;;;;;;;6.35;4.88;;;19.20;99.90;;;;;;5096089;28;20241;-79
2022/07/22 03:13:59;;;;;;;8.63;5.05;;;19.20;99.90;;;;;;5100601;28;20199;-76
2022/07/22 03:16:24;;;;;;;6.93;5.20;;;19.20;99.90;;;;;;5093920;28;20233;-78
2022/07/22 03:18:50;;;;;;;6.80;5.22;;;19.20;99.90;;;;;;5095881;28;20219;-78
2022/07/22 03:21:17;;;;;;;6.78;5.00;;;19.20;99.90;;;;;;5098679;28;20186;-73
2022/07/22 03:23:46;;;;;;;7.65;5.40;;;19.20;99.90;;;;;;5106352;28;20179;-78
2022/07/22 03:26:16;;;;;;;9.00;5.05;;;19.20;99.90;;;;;;5098710;28;20206;-77
2022/07/22 03:28:42;;;;;;;6.05;4.60;;;19.20;99.90;;;;;;5094847;28;20187;-76
2022/07/22 03:31:07;;;;;;;7.30;5.20;;;19.20;99.90;;;;;;5092706;28;20183;-79
2022/07/22 03:33:33;;;;;;;8.00;5.70;;;19.20;99.90;;;;;;5094224;28;20176;-79
2022/07/22 03:35:58;;;;;;;6.60;5.00;;;19.20;99.90;;;;;;5102319;28;20176;-78
2022/07/22 03:38:24;;;;;;;7.75;5.63;;;19.20;99.90;;;;;;5095021;28;20200;-77
2022/07/22 03:40:50;;;;;;;9.30;5.53;;;19.20;99.90;;;;;;5094963;28;20176;-78
2022/07/22 03:43:17;;;;;;;6.70;4.65;;;19.20;99.90;;;;;;5097624;28;20212;-78
2022/07/22 03:45:45;;;;;;;7.32;5.13;;;19.20;99.90;;;;;;5097580;28;20203;-75
2022/07/22 03:48:11;;;;;;;7.07;4.90;;;19.20;99.90;;;;;;5096295;28;20316;-77
2022/07/22 03:50:41;;;;;;;6.45;4.63;;;19.20;99.90;;;;;;5093889;28;20221;-77
2022/07/22 03:53:07;;;;;;;4.32;3.83;;;19.20;99.90;;;;;;5094826;28;20184;-78
2022/07/22 03:55:35;;;;;;;5.18;4.30;;;19.10;99.90;;;;;;5095341;28;20258;-77
2022/07/22 03:58:00;;;;;;;6.35;3.90;;;19.10;99.90;;;;;;5094959;28;20191;-81
2022/07/22 04:00:26;;;;;;;5.45;4.00;;;19.20;99.90;;;;;;5094663;28;20180;-82
2022/07/22 04:02:54;;;;;;;6.57;4.28;;;19.20;99.90;;;;;;5093933;28;20222;-83
2022/07/22 04:05:20;;;;;;;5.95;4.93;;;19.20;99.90;;;;;;5094890;28;20230;-79
2022/07/22 04:07:48;;;;;;;6.30;4.25;;;19.20;99.90;;;;;;5092732;28;20195;-82
2022/07/22 04:10:13;;;;;;;6.60;4.50;;;19.10;99.90;;;;;;5092702;28;20211;-81
2022/07/22 04:12:42;;;;;;;6.32;4.78;;;19.20;99.90;;;;;;5088330;28;20199;-78
2022/07/22 04:15:11;;;;;;;5.63;4.05;;;19.20;99.90;;;;;;5092700;28;20176;-80
2022/07/22 04:17:37;;;;;;;7.43;4.60;;;19.10;99.90;;;;;;5094178;28;20200;-82
2022/07/22 04:20:03;;;;;;;5.32;4.57;;;19.10;99.90;;;;;;5098209;28;20184;-82
2022/07/22 04:22:29;;;;;;;4.72;4.18;;;19.10;99.90;;;;;;5093440;28;20191;-81
2022/07/22 04:24:55;;;;;;;5.57;4.55;;;19.10;99.90;;;;;;5092202;28;20207;-81
2022/07/22 04:27:23;;;;;;;5.72;4.35;;;19.10;99.90;;;;;;5092820;28;20175;-81
2022/07/22 04:29:51;;;;;;;8.00;4.80;;;19.10;99.90;;;;;;5097013;28;20284;-81
2022/07/22 04:32:22;;;;;;;6.80;4.63;;;19.10;99.90;;;;;;5091628;28;20204;-80
2022/07/22 04:34:47;;;;;;;6.78;4.82;;;19.20;99.90;;;;;;5095799;28;20172;-77
2022/07/22 04:37:13;;;;;;;5.57;4.63;;;19.10;99.90;;;;;;5107693;28;20214;-75
2022/07/22 04:39:39;;;;;;;5.25;4.40;;;19.10;99.90;;;;;;5098306;28;20279;-82
2022/07/22 04:42:04;;;;;;;5.78;4.75;;;19.10;99.90;;;;;;5092348;28;20172;-82
2022/07/22 04:44:30;;;;;;;7.82;4.47;;;19.10;99.90;;;;;;5091809;28;20183;-81
2022/07/22 04:46:58;;;;;;;8.52;5.15;;;19.10;99.90;;;;;;5093994;28;20161;-82
2022/07/22 04:49:25;;;;;;;7.68;4.80;;;19.10;99.90;;;;;;5096314;28;20196;-81
2022/07/22 04:51:53;;;;;;;5.18;4.38;;;19.10;99.90;;;;;;5092685;28;20192;-81
2022/07/22 04:54:19;;;;;;;6.07;4.10;;;19.20;99.90;;;;;;5092347;28;20208;-80
2022/07/22 04:56:45;;;;;;;7.75;4.50;;;19.20;99.90;;;;;;5092593;28;20194;-79
2022/07/22 04:59:10;;;;;;;6.75;4.60;;;19.10;99.90;;;;;;5093701;28;20234;-73
2022/07/22 05:01:39;;;;;;;5.65;4.00;;;19.20;99.90;;;;;;5097820;28;20212;-72
2022/07/22 05:04:04;;;;;;;4.95;4.45;;;19.20;99.90;;;;;;5092257;28;20235;-75
2022/07/22 05:06:30;;;;;;;6.95;4.13;;;19.20;99.90;;;;;;5093812;28;20214;-75
2022/07/22 05:08:56;;;;;;;6.38;4.50;;;19.20;99.90;;;;;;5092336;28;20234;-75
2022/07/22 05:11:21;;;;;;;5.32;4.20;;;19.20;99.90;;;;;;5093958;28;20196;-73
2022/07/22 05:13:48;;;;;;;5.10;4.03;;;19.20;99.90;;;;;;5090645;28;20252;-75
2022/07/22 05:16:14;;;;;;;5.32;3.95;;;19.20;99.90;;;;;;5092510;28;20171;-75
2022/07/22 05:18:42;;;;;;;6.35;4.32;;;19.30;99.90;;;;;;5094789;28;20194;-75
2022/07/22 05:21:07;;;;;;;6.00;3.88;;;19.30;99.90;;;;;;5098378;28;20197;-75
2022/07/22 05:23:33;;;;;;;7.38;4.22;;;19.30;99.90;;;;;;5092818;28;20990;-75
2022/07/22 05:25:59;;;;;;;5.75;3.92;;;19.30;99.90;;;;;;5097457;28;20244;-76
2022/07/22 05:28:24;;;;;;;5.13;3.90;;;19.40;99.90;;;;;;5093459;28;20172;-75
2022/07/22 05:30:52;;;;;;;5.97;4.18;;;19.40;99.90;;;;;;5095633;28;20222;-76
2022/07/22 05:33:18;;;;;;;5.90;4.00;;;19.40;99.90;;;;;;5095956;28;20245;-80
2022/07/22 05:35:43;;;;;;;6.00;4.15;;;19.40;99.90;;;;;;5093476;28;20207;-79
2022/07/22 05:38:09;;;;;;;5.03;3.70;;;19.40;99.90;;;;;;5093081;28;20210;-79
2022/07/22 05:40:37;;;;;;;5.70;3.90;;;19.40;99.90;;;;;;5096126;28;20196;-80
2022/07/22 05:43:02;;;;;;;5.47;3.97;;;19.50;99.90;;;;;;5094625;28;20175;-79
2022/07/22 05:45:31;;;;;;;7.00;4.53;;;19.50;99.90;;;;;;5093841;28;20195;-80
2022/07/22 05:47:56;;;;;;;7.20;4.30;;;19.50;99.90;;;;;;5092696;28;20186;-76
2022/07/22 05:50:22;;;;;;;6.60;3.67;;;19.60;99.90;;;;;;5092830;28;20204;-80
2022/07/22 05:52:47;;;;;;;4.85;4.03;;;19.60;99.90;;;;;;5095049;28;20195;-80
2022/07/22 05:55:13;;;;;;;6.38;4.22;;;19.60;99.90;;;;;;5093988;28;20195;-79
2022/07/22 05:57:39;;;;;;;6.10;4.28;;;19.60;99.90;;;;;;5096551;28;20208;-80
2022/07/22 06:00:06;;;;;;;5.20;4.70;;;19.60;99.90;;;;;;5092745;28;20226;-80
2022/07/22 06:02:32;;;;;;;6.57;4.80;;;19.60;99.90;;;;;;5094748;28;20279;-79
2022/07/22 06:05:00;;;;;;;5.70;4.07;;;19.70;99.90;;;;;;5094381;28;20263;-79
2022/07/22 06:07:28;;;;;;;6.38;4.53;;;19.70;99.90;;;;;;5099415;28;20180;-80
2022/07/22 06:09:54;;;;;;;5.32;4.07;;;19.70;99.90;;;;;;5099145;28;20195;-79
2022/07/22 06:12:19;;;;;;;6.53;4.15;;;19.70;99.90;;;;;;5097582;28;20203;-80
2022/07/22 06:14:46;;;;;;;7.03;4.20;;;19.70;99.90;;;;;;5098361;28;20195;-79
2022/07/22 06:17:16;;;;;;;4.78;4.03;;;19.80;99.90;;;;;;5100056;28;20191;-79
2022/07/22 06:19:44;;;;;;;3.85;3.55;;;19.80;99.90;;;;;;5098883;28;20194;-80
2022/07/22 06:22:10;;;;;;;6.50;3.95;;;19.80;99.90;;;;;;5095521;28;20217;-79
2022/07/22 06:24:38;;;;;;;5.38;3.80;;;19.80;99.90;;;;;;5096287;28;20267;-80
2022/07/22 06:27:06;;;;;;;6.88;3.78;;;19.80;99.90;;;;;;5098039;28;20182;-80
2022/07/22 06:29:34;;;;;;;4.70;3.53;;;19.80;99.90;;;;;;5099999;28;20187;-74
2022/07/22 06:31:59;;;;;;;4.38;3.47;;;19.90;99.90;;;;;;5096142;28;20207;-80
2022/07/22 06:34:25;;;;;;;4.95;3.83;;;19.90;99.90;;;;;;5102685;28;20195;-80
2022/07/22 06:36:51;;;;;;;4.25;3.60;;;19.90;99.90;;;;;;5097479;28;20203;-79
2022/07/22 06:39:21;;;;;;;4.35;3.60;;;20.00;99.90;;;;;;5098229;28;20195;-80
2022/07/22 06:41:47;;;;;;;3.88;3.47;;;20.00;99.90;;;;;;5098619;28;20196;-79
2022/07/22 06:44:13;;;;;;;3.92;3.47;;;20.00;99.90;;;;;;5098410;28;20245;-78
2022/07/22 06:46:38;;;;;;;4.28;3.50;;;20.00;99.90;;;;;;5096898;28;20211;-80
2022/07/22 06:49:04;;;;;;;4.15;3.30;;;20.10;99.90;;;;;;5096214;28;20188;-79
2022/07/22 06:51:30;;;;;;;4.15;3.42;;;20.10;99.90;;;;;;5095427;28;20207;-80
2022/07/22 06:53:55;;;;;;;4.68;3.80;;;20.20;99.90;;;;;;5097396;28;20199;-79
2022/07/22 06:56:23;;;;;;;6.05;3.88;;;20.20;99.90;;;;;;5095659;28;20187;-79
2022/07/22 06:58:51;;;;;;;5.30;3.65;;;20.30;99.90;;;;;;5095696;28;20196;-80
2022/07/22 07:01:19;;;;;;;5.32;4.20;;;20.30;99.90;;;;;;5096337;28;20172;-79
2022/07/22 07:03:47;;;;;;;5.75;4.03;;;20.40;99.90;;;;;;5095701;28;20194;-78
2022/07/22 07:06:12;;;;;;;4.00;3.60;;;20.40;99.90;;;;;;5097295;28;20192;-79
2022/07/22 07:08:39;;;;;;;5.50;4.30;;;20.50;99.90;;;;;;5096343;28;20207;-79
2022/07/22 07:11:07;;;;;;;7.00;4.65;;;20.50;99.90;;;;;;5098367;28;20164;-80
2022/07/22 07:13:33;;;;;;;6.18;4.45;;;20.50;99.90;;;;;;5096941;28;20231;-79
2022/07/22 07:15:59;;;;;;;5.63;4.60;;;20.50;99.90;;;;;;5095859;28;20217;-79
2022/07/22 07:18:25;;;;;;;4.95;4.18;;;20.50;99.90;;;;;;5093802;28;20177;-79
2022/07/22 07:20:50;;;;;;;7.20;4.90;;;20.50;99.90;;;;;;5094673;28;20176;-79
2022/07/22 07:23:18;;;;;;;7.78;4.78;;;20.50;99.90;;;;;;5100966;28;20175;-79
2022/07/22 07:25:46;;;;;;;5.60;4.70;;;20.50;99.90;;;;;;5094488;28;20190;-78
2022/07/22 07:28:12;;;;;;;5.35;4.38;;;20.60;99.90;;;;;;5094453;28;20176;-78
2022/07/22 07:30:37;;;;;;;6.72;5.45;;;20.60;99.90;;;;;;5095033;28;20370;-79
2022/07/22 07:33:05;;;;;;;6.97;5.88;;;20.60;99.90;;;;;;5095740;28;20198;-79
2022/07/22 07:35:31;;;;;;;7.45;5.80;;;20.60;99.90;;;;;;5095365;28;20184;-80
2022/07/22 07:37:57;;;;;;;6.05;5.35;;;20.70;99.90;;;;;;5095311;28;20182;-79
2022/07/22 07:40:24;;;;;;;6.25;5.03;;;20.70;99.90;;;;;;5097018;28;20275;-79
2022/07/22 07:42:51;;;;;;;5.65;5.05;;;20.70;99.90;;;;;;5095945;28;20171;-80
2022/07/22 07:45:17;;;;;;;7.10;5.07;;;20.70;99.90;;;;;;5096093;28;20180;-79
2022/07/22 07:47:45;;;;;;;6.80;6.05;;;20.80;99.90;;;;;;5095568;28;20200;-80
2022/07/22 07:50:11;;;;;;;6.47;5.60;;;20.80;99.90;;;;;;5096581;28;20198;-79
2022/07/22 07:52:43;;;;;;;8.02;6.32;;;20.80;99.90;;;;;;5100073;28;20184;-76
2022/07/22 07:55:12;;;;;;;8.60;7.00;;;20.80;99.90;;;;;;5100203;28;20168;-79
2022/07/22 07:57:38;;;;;;;7.10;6.35;;;20.90;99.90;;;;;;5094989;28;20176;-81
2022/07/22 08:00:07;;;;;;;7.95;6.85;;;20.90;99.90;;;;;;5094341;28;20188;-79
2022/07/22 08:02:33;;;;;;;7.43;6.35;;;21.00;99.90;;;;;;5096275;28;20260;-79
2022/07/22 08:04:59;;;;;;;7.32;6.53;;;21.00;99.90;;;;;;5097949;28;20179;-79
2022/07/22 08:07:25;;;;;;;8.32;6.35;;;21.00;99.90;;;;;;5095145;28;20196;-79
2022/07/22 08:09:51;;;;;;;7.20;6.47;;;21.00;99.90;;;;;;5096195;28;20217;-79
2022/07/22 08:12:16;;;;;;;7.78;6.97;;;21.10;99.90;;;;;;5096090;28;20203;-77
2022/07/22 08:14:42;;;;;;;7.68;6.40;;;21.20;99.90;;;;;;5094559;28;20195;-79
2022/07/22 08:17:08;;;;;;;9.38;6.90;;;21.20;99.90;;;;;;5096373;28;20230;-79
2022/07/22 08:19:36;;;;;;;8.57;6.93;;;21.30;99.90;;;;;;5096478;28;20311;-79
2022/07/22 08:22:02;;;;;;;10.82;7.30;;;21.40;99.90;;;;;;5094131;28;20243;-80
2022/07/22 08:24:27;;;;;;;8.27;6.70;;;21.50;99.90;;;;;;5095969;28;20203;-77
2022/07/22 08:26:53;;;;;;;9.60;7.60;;;21.60;99.90;;;;;;5095875;28;20215;-80
2022/07/22 08:29:19;;;;;;;9.90;7.38;;;21.70;99.90;;;;;;5101495;28;20315;-81
2022/07/22 08:31:45;;;;;;;8.30;7.50;;;21.90;99.90;;;;;;5094903;28;20190;-78
2022/07/22 08:34:10;;;;;;;9.25;7.85;;;22.00;99.90;;;;;;5098248;28;20258;-80
2022/07/22 08:36:38;;;;;;;8.93;7.90;;;22.10;99.90;;;;;;5096109;28;20172;-80
2022/07/22 08:39:04;;;;;;;8.88;7.47;;;22.20;99.90;;;;;;5098679;28;20186;-81
2022/07/22 08:41:35;;;;;;;8.77;7.47;;;22.30;99.90;;;;;;5096256;28;20203;-78
2022/07/22 08:44:06;;;;;;;8.68;7.57;;;22.40;99.90;;;;;;5095898;28;20195;-84
2022/07/22 08:46:32;;;;;;;8.02;7.20;;;22.50;99.90;;;;;;5100891;28;20196;-80
2022/07/22 08:49:00;;;;;;;9.15;7.53;;;22.60;99.90;;;;;;5095402;28;20203;-81
2022/07/22 08:51:26;;;;;;;8.60;7.70;;;22.60;99.90;;;;;;5095511;28;20222;-80
2022/07/22 08:53:52;;;;;;;8.27;7.20;;;22.70;99.90;;;;;;5094881;28;20176;-79
2022/07/22 08:56:20;;;;;;;9.30;7.78;;;22.80;99.90;;;;;;5096350;28;20228;-78
2022/07/22 08:58:45;;;;;;;8.65;7.45;;;22.90;99.90;;;;;;5095876;28;20180;-80
2022/07/22 09:01:16;;;;;;;8.90;7.93;;;22.90;99.90;;;;;;5095613;28;20480;-80
2022/07/22 09:03:56;;;;;;;7.75;6.95;;;22.90;99.90;;;;;;5096526;28;20207;-81
2022/07/22 09:06:33;;;;;;;8.85;7.68;;;22.90;99.90;;;;;;5102432;28;20194;-80
2022/07/22 09:09:03;;;;;;;8.68;7.35;;;22.90;99.90;;;;;;5096009;28;20218;-80
2022/07/22 09:11:30;;;;;;;7.90;7.10;;;23.00;99.90;;;;;;5092978;28;20297;-79
2022/07/22 09:14:02;;;;;;;9.20;8.07;;;23.00;99.90;;;;;;5094840;28;20267;-79
2022/07/22 09:16:42;;;;;;;9.18;7.28;;;23.10;99.90;;;;;;5095518;28;20179;-78
2022/07/22 09:19:11;;;;;;;8.27;7.13;;;23.10;99.90;;;;;;5093443;28;20184;-78
2022/07/22 09:21:41;;;;;;;7.22;6.45;;;23.20;99.90;;;;;;5095179;28;20213;-81
2022/07/22 09:24:08;;;;;;;7.88;6.97;;;23.10;99.90;;;;;;5092665;28;20168;-80
2022/07/22 09:26:38;;;;;;;7.43;6.72;;;23.10;99.90;;;;;;5093755;28;20187;-79
2022/07/22 09:29:05;;;;;;;8.30;6.63;;;23.10;99.90;;;;;;5092840;28;20208;-78
2022/07/22 09:31:37;;;;;;;8.13;6.80;;;23.10;99.90;;;;;;5095454;28;20191;-78
2022/07/22 09:34:04;;;;;;;7.18;6.40;;;23.00;99.90;;;;;;5137183;27;20201;-77
2022/07/22 09:36:32;;;;;;;7.53;6.70;;;23.00;99.90;;;;;;5097822;28;20257;-77
2022/07/22 09:38:58;;;;;;;7.22;6.35;;;22.90;99.90;;;;;;5100005;28;20184;-77
2022/07/22 09:41:24;;;;;;;7.15;6.45;;;22.90;99.90;;;;;;5094376;28;20225;-79
2022/07/22 09:43:50;;;;;;;7.72;6.78;;;22.90;99.90;;;;;;5097590;28;20171;-79
2022/07/22 09:46:16;;;;;;;7.07;6.38;;;23.00;99.90;;;;;;5099016;28;20179;-80
2022/07/22 09:48:43;;;;;;;10.23;7.57;;;23.00;99.90;;;;;;5094317;28;20188;-80
2022/07/22 09:51:09;;;;;;;8.32;7.13;;;23.00;99.90;;;;;;5097945;28;20241;-80
2022/07/22 09:53:35;;;;;;;7.25;6.13;;;23.10;99.90;;;;;;5098615;28;20267;-80
2022/07/22 09:56:04;;;;;;;7.75;6.82;;;23.10;99.90;;;;;;5098391;28;20220;-80
2022/07/22 09:58:32;;;;;;;8.43;7.38;;;23.10;99.90;;;;;;5098383;28;20180;-81
2022/07/22 10:01:02;;;;;;;7.60;6.80;;;23.20;99.90;;;;;;5098329;28;20214;-80
2022/07/22 10:03:36;;;;;;;7.68;6.88;;;23.20;99.90;;;;;;5097243;28;20226;-80
2022/07/22 10:06:04;;;;;;;8.55;7.65;;;23.30;99.90;;;;;;5132256;27;20183;-83
2022/07/22 10:08:34;;;;;;;8.40;6.88;;;23.30;99.90;;;;;;5099260;28;20234;-82
2022/07/22 10:11:03;;;;;;;9.32;8.00;;;23.40;99.90;;;;;;5098420;28;20206;-83
2022/07/22 10:13:31;;;;;;;8.70;7.80;;;23.40;99.90;;;;;;5097717;28;20179;-81
2022/07/22 10:16:02;;;;;;;9.60;8.38;;;23.40;99.90;;;;;;5097799;28;20193;-80
2022/07/22 10:18:29;;;;;;;8.55;7.75;;;23.40;99.90;;;;;;5097669;28;20218;-78
2022/07/22 10:21:10;;;;;;;9.60;8.25;;;23.50;99.90;;;;;;5098874;28;20200;-79
2022/07/22 10:23:36;;;;;;;10.00;9.00;;;23.60;99.90;;;;;;5099245;28;20183;-76
2022/07/22 10:26:04;;;;;;;9.30;8.40;;;23.70;99.90;;;;;;5107105;28;20244;-79
2022/07/22 10:28:37;;;;;;;9.15;8.25;;;23.80;99.90;;;;;;5097838;28;20211;-79
2022/07/22 10:31:25;;;;;;;8.95;8.02;;;24.00;99.90;;;;;;5101284;28;20217;-76
2022/07/22 10:33:53;;;;;;;8.95;8.05;;;24.20;99.90;;;;;;5116249;28;20268;-69
2022/07/22 10:36:42;;;;;;;9.85;8.85;;;24.30;99.90;;;;;;5109627;28;20199;-78
2022/07/22 10:39:10;;;;;;;9.93;9.02;;;24.40;99.90;;;;;;5131225;27;20200;-79
2022/07/22 10:41:39;;;;;;;9.00;8.10;;;24.40;99.90;;;;;;5096932;28;20595;-77
2022/07/22 10:44:11;;;;;;;9.52;8.60;;;24.40;99.90;;;;;;5096561;28;20172;-79
2022/07/22 10:46:50;;;;;;;9.07;8.18;;;24.40;99.90;;;;;;5095887;28;20410;-80
2022/07/22 10:49:18;;;;;;;10.02;9.02;;;24.40;99.90;;;;;;5097037;28;20199;-79
2022/07/22 10:52:22;;;;;;;9.55;8.63;;;24.40;99.90;;;;;;5097651;28;20226;-80
2022/07/22 10:55:20;;;;;;;9.52;8.52;;;24.50;99.90;;;;;;5054525;28;20249;-78
2022/07/22 10:57:48;;;;;;;9.05;8.15;;;24.60;99.90;;;;;;5097109;28;20180;-80
2022/07/22 11:00:17;;;;;;;9.60;8.63;;;24.60;99.90;;;;;;5095162;28;20168;-78
2022/07/22 11:02:45;;;;;;;12.57;10.52;;;24.70;99.90;;;;;;5097938;28;20199;-80
2022/07/22 11:05:14;;;;;;;10.70;9.57;;;24.70;99.90;;;;;;5095137;28;20203;-80
2022/07/22 11:07:47;;;;;;;10.63;9.63;;;24.70;99.90;;;;;;5093789;28;20190;-79
2022/07/22 11:10:15;;;;;;;10.38;9.40;;;24.80;99.90;;;;;;5096445;28;20207;-79
2022/07/22 11:12:41;;;;;;;12.07;10.88;;;24.80;99.90;;;;;;5097148;28;20279;-81
2022/07/22 11:15:10;;;;;;;11.20;10.02;;;25.00;99.90;;;;;;5095672;28;20327;-79
2022/07/22 11:17:37;;;;;;;12.07;10.88;;;25.20;99.90;;;;;;5095910;28;20205;-84
2022/07/22 11:20:09;;;;;;;11.88;10.77;;;25.30;99.90;;;;;;5095383;28;20202;-80
2022/07/22 11:22:36;;;;;;;11.80;10.60;;;25.40;99.90;;;;;;5100097;28;20201;-79
2022/07/22 11:25:05;;;;;;;11.43;10.13;;;25.50;99.90;;;;;;5096622;28;20204;-81
2022/07/22 11:27:30;;;;;;;11.65;10.45;;;25.60;99.90;;;;;;5095268;28;20229;-79
2022/07/22 11:29:57;;;;;;;12.02;10.70;;;25.80;99.90;;;;;;5095041;28;20220;-81
2022/07/22 11:32:27;;;;;;;12.10;10.93;;;25.90;99.90;;;;;;5097470;28;20316;-80
2022/07/22 11:34:53;;;;;;;11.23;10.10;;;26.10;99.90;;;;;;5097432;28;20171;-80
2022/07/22 11:37:24;;;;;;;11.25;10.18;;;26.30;99.90;;;;;;5094045;28;20207;-80
2022/07/22 11:40:02;;;;;;;10.90;9.80;;;26.50;99.90;;;;;;5094935;28;20187;-81
2022/07/22 11:42:29;;;;;;;10.73;9.70;;;26.60;99.90;;;;;;5092349;28;20203;-81
2022/07/22 11:44:58;;;;;;;11.45;10.35;;;26.70;99.90;;;;;;5093790;28;20277;-80
2022/07/22 11:47:26;;;;;;;13.55;12.18;;;26.90;99.90;;;;;;5094624;28;20172;-82
2022/07/22 11:49:54;;;;;;;11.88;10.68;;;27.00;99.90;;;;;;5097684;28;20547;-82
2022/07/22 11:52:19;;;;;;;10.27;9.35;;;27.20;99.90;;;;;;5098066;28;20183;-81
2022/07/22 11:54:46;;;;;;;11.70;10.60;;;27.20;99.90;;;;;;5094635;28;20172;-83
2022/07/22 11:57:13;;;;;;;10.40;9.40;;;27.30;99.90;;;;;;5095031;28;20186;-79
2022/07/22 11:59:41;;;;;;;10.00;9.10;;;27.40;99.90;;;;;;5097561;28;20203;-83
2022/07/22 12:02:09;;;;;;;10.35;9.35;;;27.40;99.90;;;;;;5099207;28;20202;-82
2022/07/22 12:04:38;;;;;;;9.20;8.25;;;27.50;99.90;;;;;;5095011;28;20299;-82
2022/07/22 12:07:12;;;;;;;10.13;9.13;;;27.60;99.90;;;;;;5096478;28;20187;-80
2022/07/22 12:09:41;;;;;;;9.45;8.55;;;27.60;99.90;;;;;;5095412;28;20287;-81
2022/07/22 12:12:07;;;;;;;9.63;8.73;;;27.70;99.90;;;;;;5094387;28;20272;-80
2022/07/22 12:14:34;;;;;;;9.77;8.88;;;27.70;99.90;;;;;;5095334;28;20282;-80
2022/07/22 12:17:05;;;;;;;10.00;9.00;;;27.80;99.90;;;;;;5096215;28;20171;-81
2022/07/22 12:19:35;;;;;;;10.15;9.15;;;27.80;99.90;;;;;;5095435;28;20195;-83
2022/07/22 12:22:07;;;;;;;9.48;8.57;;;27.80;99.90;;;;;;5094006;28;20179;-82
2022/07/22 12:24:36;;;;;;;8.95;7.72;;;27.80;99.90;;;;;;5093995;28;20190;-73
2022/07/22 12:27:04;;;;;;;8.02;7.32;;;27.80;99.90;;;;;;5093102;28;20265;-74
2022/07/22 12:29:53;;;;;;;8.32;7.53;;;27.80;99.90;;;;;;5094783;28;20207;-72
2022/07/22 12:32:22;;;;;;;7.65;6.95;;;27.80;99.90;;;;;;5094997;28;20180;-72
2022/07/22 12:34:58;;;;;;;7.05;6.43;;;27.80;99.90;;;;;;5095517;28;20207;-72
2022/07/22 12:37:40;;;;;;;7.88;7.13;;;27.80;99.90;;;;;;5097278;28;20197;-71
2022/07/22 12:40:08;;;;;;;6.72;6.13;;;27.80;99.90;;;;;;5126535;27;20196;-72
2022/07/22 12:42:38;;;;;;;8.00;7.22;;;27.70;99.90;;;;;;5093488;28;20180;-72
2022/07/22 12:45:16;;;;;;;8.07;7.28;;;27.60;99.90;;;;;;5097002;28;20175;-72
2022/07/22 12:47:49;;;;;;;8.18;7.38;;;27.50;99.90;;;;;;5091299;28;20303;-72